sensor_id;sensor_type;location;lat;lon;timestamp;P1;durP1;ratioP1;P2;durP2;ratioP2
70997;SDS011;58663;52.040;4.634;2022-12-18T00:00:43;84.18;;;23.17;;
70997;SDS011;58663;52.040;4.634;2022-12-18T00:03:09;86.20;;;24.30;;
70997;SDS011;58663;52.040;4.634;2022-12-18T00:05:34;82.82;;;26.13;;
70997;SDS011;58663;52.040;4.634;2022-12-18T00:08:00;100.57;;;27.17;;
70997;SDS011;58663;52.040;4.634;2022-12-18T00:10:27;79.97;;;26.02;;
70997;SDS011;58663;52.040;4.634;2022-12-18T00:12:53;86.22;;;25.67;;
70997;SDS011;58663;52.040;4.634;2022-12-18T00:15:19;92.63;;;24.75;;
70997;SDS011;58663;52.040;4.634;2022-12-18T00:17:44;84.85;;;25.73;;
70997;SDS011;58663;52.040;4.634;2022-12-18T00:20:10;92.97;;;27.70;;
70997;SDS011;58663;52.040;4.634;2022-12-18T00:22:35;76.35;;;23.15;;
70997;SDS011;58663;52.040;4.634;2022-12-18T00:25:01;94.57;;;28.48;;
70997;SDS011;58663;52.040;4.634;2022-12-18T00:27:26;91.93;;;25.15;;
70997;SDS011;58663;52.040;4.634;2022-12-18T00:29:51;93.97;;;25.00;;
70997;SDS011;58663;52.040;4.634;2022-12-18T00:32:17;93.07;;;26.50;;
70997;SDS011;58663;52.040;4.634;2022-12-18T00:34:43;81.38;;;25.38;;
70997;SDS011;58663;52.040;4.634;2022-12-18T00:37:08;89.18;;;24.05;;
70997;SDS011;58663;52.040;4.634;2022-12-18T00:39:34;77.60;;;22.80;;
70997;SDS011;58663;52.040;4.634;2022-12-18T00:41:59;81.53;;;24.48;;
70997;SDS011;58663;52.040;4.634;2022-12-18T00:44:43;68.82;;;21.83;;
70997;SDS011;58663;52.040;4.634;2022-12-18T00:47:08;68.30;;;23.85;;
70997;SDS011;58663;52.040;4.634;2022-12-18T00:49:34;78.53;;;24.00;;
70997;SDS011;58663;52.040;4.634;2022-12-18T00:51:59;66.68;;;22.23;;
70997;SDS011;58663;52.040;4.634;2022-12-18T00:54:24;80.75;;;22.95;;
70997;SDS011;58663;52.040;4.634;2022-12-18T00:56:50;81.45;;;23.95;;
70997;SDS011;58663;52.040;4.634;2022-12-18T00:59:16;94.35;;;25.73;;
70997;SDS011;58663;52.040;4.634;2022-12-18T01:01:42;78.05;;;24.15;;
70997;SDS011;58663;52.040;4.634;2022-12-18T01:04:07;83.57;;;23.80;;
70997;SDS011;58663;52.040;4.634;2022-12-18T01:06:33;68.38;;;20.05;;
70997;SDS011;58663;52.040;4.634;2022-12-18T01:08:58;69.55;;;22.13;;
70997;SDS011;58663;52.040;4.634;2022-12-18T01:11:24;75.57;;;22.65;;
70997;SDS011;58663;52.040;4.634;2022-12-18T01:13:51;72.95;;;22.17;;
70997;SDS011;58663;52.040;4.634;2022-12-18T01:16:17;71.57;;;22.58;;
70997;SDS011;58663;52.040;4.634;2022-12-18T01:18:43;63.75;;;19.13;;
70997;SDS011;58663;52.040;4.634;2022-12-18T01:21:09;66.82;;;21.90;;
70997;SDS011;58663;52.040;4.634;2022-12-18T01:23:35;69.00;;;22.33;;
70997;SDS011;58663;52.040;4.634;2022-12-18T01:26:08;82.57;;;23.55;;
70997;SDS011;58663;52.040;4.634;2022-12-18T01:28:36;82.20;;;21.77;;
70997;SDS011;58663;52.040;4.634;2022-12-18T01:31:24;72.82;;;23.13;;
70997;SDS011;58663;52.040;4.634;2022-12-18T01:33:52;82.15;;;22.55;;
70997;SDS011;58663;52.040;4.634;2022-12-18T01:36:25;68.38;;;22.85;;
70997;SDS011;58663;52.040;4.634;2022-12-18T01:38:52;70.97;;;21.00;;
70997;SDS011;58663;52.040;4.634;2022-12-18T01:41:27;76.28;;;24.98;;
70997;SDS011;58663;52.040;4.634;2022-12-18T01:50:07;69.85;;;22.48;;
70997;SDS011;58663;52.040;4.634;2022-12-18T01:52:33;65.43;;;22.50;;
70997;SDS011;58663;52.040;4.634;2022-12-18T01:54:59;72.10;;;23.88;;
70997;SDS011;58663;52.040;4.634;2022-12-18T01:57:25;65.45;;;21.35;;
70997;SDS011;58663;52.040;4.634;2022-12-18T01:59:52;58.92;;;20.02;;
70997;SDS011;58663;52.040;4.634;2022-12-18T02:02:18;61.10;;;22.50;;
70997;SDS011;58663;52.040;4.634;2022-12-18T02:04:44;75.63;;;22.85;;
70997;SDS011;58663;52.040;4.634;2022-12-18T02:10:02;64.28;;;20.85;;
70997;SDS011;58663;52.040;4.634;2022-12-18T02:18:13;70.15;;;22.10;;
70997;SDS011;58663;52.040;4.634;2022-12-18T02:20:53;57.00;;;20.30;;
70997;SDS011;58663;52.040;4.634;2022-12-18T02:26:02;62.75;;;21.67;;
70997;SDS011;58663;52.040;4.634;2022-12-18T02:28:32;64.75;;;21.00;;
70997;SDS011;58663;52.040;4.634;2022-12-18T02:31:06;58.90;;;20.92;;
70997;SDS011;58663;52.040;4.634;2022-12-18T02:33:34;66.55;;;20.73;;
70997;SDS011;58663;52.040;4.634;2022-12-18T02:36:00;60.17;;;21.50;;
70997;SDS011;58663;52.040;4.634;2022-12-18T02:38:26;62.55;;;19.90;;
70997;SDS011;58663;52.040;4.634;2022-12-18T02:40:53;58.08;;;19.40;;
70997;SDS011;58663;52.040;4.634;2022-12-18T02:43:19;71.22;;;21.45;;
70997;SDS011;58663;52.040;4.634;2022-12-18T02:45:50;75.85;;;22.67;;
70997;SDS011;58663;52.040;4.634;2022-12-18T02:48:18;67.10;;;21.73;;
70997;SDS011;58663;52.040;4.634;2022-12-18T02:50:55;78.93;;;22.33;;
70997;SDS011;58663;52.040;4.634;2022-12-18T02:53:51;66.90;;;21.50;;
70997;SDS011;58663;52.040;4.634;2022-12-18T02:56:20;59.45;;;20.55;;
70997;SDS011;58663;52.040;4.634;2022-12-18T02:58:52;67.53;;;17.65;;
70997;SDS011;58663;52.040;4.634;2022-12-18T03:04:18;72.60;;;20.50;;
70997;SDS011;58663;52.040;4.634;2022-12-18T03:06:55;53.38;;;18.40;;
70997;SDS011;58663;52.040;4.634;2022-12-18T03:09:29;46.30;;;17.00;;
70997;SDS011;58663;52.040;4.634;2022-12-18T03:12:00;58.50;;;19.98;;
70997;SDS011;58663;52.040;4.634;2022-12-18T03:15:04;51.63;;;18.23;;
70997;SDS011;58663;52.040;4.634;2022-12-18T03:17:34;69.97;;;21.48;;
70997;SDS011;58663;52.040;4.634;2022-12-18T03:20:05;50.60;;;18.02;;
70997;SDS011;58663;52.040;4.634;2022-12-18T03:22:37;63.90;;;20.20;;
70997;SDS011;58663;52.040;4.634;2022-12-18T03:25:04;65.28;;;21.48;;
70997;SDS011;58663;52.040;4.634;2022-12-18T03:27:31;67.57;;;21.75;;
70997;SDS011;58663;52.040;4.634;2022-12-18T03:30:01;75.40;;;24.20;;
70997;SDS011;58663;52.040;4.634;2022-12-18T03:32:33;62.05;;;19.98;;
70997;SDS011;58663;52.040;4.634;2022-12-18T03:35:04;74.93;;;20.92;;
70997;SDS011;58663;52.040;4.634;2022-12-18T03:37:31;73.63;;;22.67;;
70997;SDS011;58663;52.040;4.634;2022-12-18T03:39:56;65.63;;;20.83;;
70997;SDS011;58663;52.040;4.634;2022-12-18T03:42:25;56.42;;;20.50;;
70997;SDS011;58663;52.040;4.634;2022-12-18T03:53:03;57.22;;;18.55;;
70997;SDS011;58663;52.040;4.634;2022-12-18T03:55:34;43.15;;;16.85;;
70997;SDS011;58663;52.040;4.634;2022-12-18T03:58:01;54.67;;;19.10;;
70997;SDS011;58663;52.040;4.634;2022-12-18T04:00:27;44.72;;;17.50;;
70997;SDS011;58663;52.040;4.634;2022-12-18T04:02:54;60.05;;;19.27;;
70997;SDS011;58663;52.040;4.634;2022-12-18T04:05:21;53.60;;;18.13;;
70997;SDS011;58663;52.040;4.634;2022-12-18T04:07:48;51.03;;;17.92;;
70997;SDS011;58663;52.040;4.634;2022-12-18T04:10:17;51.05;;;18.38;;
70997;SDS011;58663;52.040;4.634;2022-12-18T04:12:43;46.65;;;17.30;;
70997;SDS011;58663;52.040;4.634;2022-12-18T04:15:09;41.90;;;17.45;;
70997;SDS011;58663;52.040;4.634;2022-12-18T04:17:35;38.33;;;15.48;;
70997;SDS011;58663;52.040;4.634;2022-12-18T04:20:00;43.42;;;17.52;;
70997;SDS011;58663;52.040;4.634;2022-12-18T04:22:26;53.67;;;17.73;;
70997;SDS011;58663;52.040;4.634;2022-12-18T04:24:52;43.38;;;15.82;;
70997;SDS011;58663;52.040;4.634;2022-12-18T04:27:17;46.08;;;16.27;;
70997;SDS011;58663;52.040;4.634;2022-12-18T04:29:42;46.40;;;15.25;;
70997;SDS011;58663;52.040;4.634;2022-12-18T04:32:08;43.63;;;16.70;;
70997;SDS011;58663;52.040;4.634;2022-12-18T04:34:33;38.97;;;16.83;;
70997;SDS011;58663;52.040;4.634;2022-12-18T04:36:59;52.83;;;16.85;;
70997;SDS011;58663;52.040;4.634;2022-12-18T04:39:24;41.92;;;17.70;;
70997;SDS011;58663;52.040;4.634;2022-12-18T04:41:50;44.72;;;19.00;;
70997;SDS011;58663;52.040;4.634;2022-12-18T04:44:15;48.72;;;18.33;;
70997;SDS011;58663;52.040;4.634;2022-12-18T04:46:40;42.58;;;17.63;;
70997;SDS011;58663;52.040;4.634;2022-12-18T04:49:06;47.70;;;17.08;;
70997;SDS011;58663;52.040;4.634;2022-12-18T04:51:31;52.20;;;18.00;;
70997;SDS011;58663;52.040;4.634;2022-12-18T04:53:57;42.45;;;15.85;;
70997;SDS011;58663;52.040;4.634;2022-12-18T04:56:22;45.17;;;18.50;;
70997;SDS011;58663;52.040;4.634;2022-12-18T04:58:48;45.38;;;16.63;;
70997;SDS011;58663;52.040;4.634;2022-12-18T05:01:14;38.97;;;15.48;;
70997;SDS011;58663;52.040;4.634;2022-12-18T05:03:40;49.30;;;18.10;;
70997;SDS011;58663;52.040;4.634;2022-12-18T05:06:06;43.40;;;17.35;;
70997;SDS011;58663;52.040;4.634;2022-12-18T05:08:32;47.42;;;16.88;;
70997;SDS011;58663;52.040;4.634;2022-12-18T05:11:19;49.78;;;15.75;;
70997;SDS011;58663;52.040;4.634;2022-12-18T05:13:44;50.40;;;17.88;;
70997;SDS011;58663;52.040;4.634;2022-12-18T05:16:10;51.00;;;16.42;;
70997;SDS011;58663;52.040;4.634;2022-12-18T05:18:35;52.25;;;18.17;;
70997;SDS011;58663;52.040;4.634;2022-12-18T05:21:01;55.40;;;19.13;;
70997;SDS011;58663;52.040;4.634;2022-12-18T05:23:27;50.25;;;16.63;;
70997;SDS011;58663;52.040;4.634;2022-12-18T05:25:53;46.90;;;18.27;;
70997;SDS011;58663;52.040;4.634;2022-12-18T05:28:22;45.38;;;17.92;;
70997;SDS011;58663;52.040;4.634;2022-12-18T05:30:53;43.22;;;18.98;;
70997;SDS011;58663;52.040;4.634;2022-12-18T05:33:20;52.10;;;19.83;;
70997;SDS011;58663;52.040;4.634;2022-12-18T05:35:56;50.47;;;20.83;;
70997;SDS011;58663;52.040;4.634;2022-12-18T05:38:23;53.00;;;18.17;;
70997;SDS011;58663;52.040;4.634;2022-12-18T05:40:50;48.13;;;17.77;;
70997;SDS011;58663;52.040;4.634;2022-12-18T05:43:16;47.58;;;17.10;;
70997;SDS011;58663;52.040;4.634;2022-12-18T05:45:42;52.75;;;20.05;;
70997;SDS011;58663;52.040;4.634;2022-12-18T05:48:08;39.83;;;16.13;;
70997;SDS011;58663;52.040;4.634;2022-12-18T05:50:36;57.80;;;20.13;;
70997;SDS011;58663;52.040;4.634;2022-12-18T05:53:03;47.13;;;18.80;;
70997;SDS011;58663;52.040;4.634;2022-12-18T05:55:29;39.78;;;15.73;;
70997;SDS011;58663;52.040;4.634;2022-12-18T05:57:57;36.50;;;14.82;;
70997;SDS011;58663;52.040;4.634;2022-12-18T06:00:22;50.97;;;18.27;;
70997;SDS011;58663;52.040;4.634;2022-12-18T06:02:48;37.53;;;15.63;;
70997;SDS011;58663;52.040;4.634;2022-12-18T06:05:13;39.22;;;16.63;;
70997;SDS011;58663;52.040;4.634;2022-12-18T06:07:39;44.03;;;19.42;;
70997;SDS011;58663;52.040;4.634;2022-12-18T06:10:04;49.50;;;16.65;;
70997;SDS011;58663;52.040;4.634;2022-12-18T06:12:30;46.55;;;17.73;;
70997;SDS011;58663;52.040;4.634;2022-12-18T06:14:56;32.58;;;16.05;;
70997;SDS011;58663;52.040;4.634;2022-12-18T06:17:21;39.53;;;15.95;;
70997;SDS011;58663;52.040;4.634;2022-12-18T06:19:47;47.60;;;16.50;;
70997;SDS011;58663;52.040;4.634;2022-12-18T06:22:12;40.08;;;15.50;;
70997;SDS011;58663;52.040;4.634;2022-12-18T06:24:38;43.33;;;17.42;;
70997;SDS011;58663;52.040;4.634;2022-12-18T06:27:03;37.05;;;14.75;;
70997;SDS011;58663;52.040;4.634;2022-12-18T06:29:29;34.00;;;16.30;;
70997;SDS011;58663;52.040;4.634;2022-12-18T06:31:54;33.75;;;13.70;;
70997;SDS011;58663;52.040;4.634;2022-12-18T06:34:20;44.97;;;14.95;;
70997;SDS011;58663;52.040;4.634;2022-12-18T06:36:45;29.73;;;13.80;;
70997;SDS011;58663;52.040;4.634;2022-12-18T06:39:10;37.15;;;15.38;;
70997;SDS011;58663;52.040;4.634;2022-12-18T06:41:36;32.55;;;14.32;;
70997;SDS011;58663;52.040;4.634;2022-12-18T06:44:01;35.63;;;14.25;;
70997;SDS011;58663;52.040;4.634;2022-12-18T06:46:27;42.22;;;15.55;;
70997;SDS011;58663;52.040;4.634;2022-12-18T06:48:52;37.20;;;15.00;;
70997;SDS011;58663;52.040;4.634;2022-12-18T06:51:21;41.83;;;15.65;;
70997;SDS011;58663;52.040;4.634;2022-12-18T06:53:48;32.22;;;14.20;;
70997;SDS011;58663;52.040;4.634;2022-12-18T06:56:14;29.00;;;14.23;;
70997;SDS011;58663;52.040;4.634;2022-12-18T06:58:40;35.38;;;14.95;;
70997;SDS011;58663;52.040;4.634;2022-12-18T07:01:07;33.63;;;14.40;;
70997;SDS011;58663;52.040;4.634;2022-12-18T07:03:34;28.80;;;14.40;;
70997;SDS011;58663;52.040;4.634;2022-12-18T07:05:59;32.47;;;14.43;;
70997;SDS011;58663;52.040;4.634;2022-12-18T07:08:25;34.88;;;15.00;;
70997;SDS011;58663;52.040;4.634;2022-12-18T07:10:50;32.53;;;14.75;;
70997;SDS011;58663;52.040;4.634;2022-12-18T07:13:16;35.10;;;14.35;;
70997;SDS011;58663;52.040;4.634;2022-12-18T07:15:42;39.55;;;14.52;;
70997;SDS011;58663;52.040;4.634;2022-12-18T07:18:08;33.28;;;14.13;;
70997;SDS011;58663;52.040;4.634;2022-12-18T07:20:34;27.02;;;14.02;;
70997;SDS011;58663;52.040;4.634;2022-12-18T07:23:01;31.10;;;14.98;;
70997;SDS011;58663;52.040;4.634;2022-12-18T07:25:27;32.78;;;15.40;;
70997;SDS011;58663;52.040;4.634;2022-12-18T07:27:52;37.70;;;15.60;;
70997;SDS011;58663;52.040;4.634;2022-12-18T07:30:18;37.20;;;14.63;;
70997;SDS011;58663;52.040;4.634;2022-12-18T07:32:43;31.00;;;13.60;;
70997;SDS011;58663;52.040;4.634;2022-12-18T07:35:09;36.58;;;15.82;;
70997;SDS011;58663;52.040;4.634;2022-12-18T07:37:34;35.38;;;13.02;;
70997;SDS011;58663;52.040;4.634;2022-12-18T07:40:00;37.67;;;14.00;;
70997;SDS011;58663;52.040;4.634;2022-12-18T07:42:25;34.47;;;14.30;;
70997;SDS011;58663;52.040;4.634;2022-12-18T07:44:57;36.13;;;14.52;;
70997;SDS011;58663;52.040;4.634;2022-12-18T07:47:27;40.83;;;15.23;;
70997;SDS011;58663;52.040;4.634;2022-12-18T07:49:53;23.77;;;14.18;;
70997;SDS011;58663;52.040;4.634;2022-12-18T07:52:18;36.65;;;14.55;;
70997;SDS011;58663;52.040;4.634;2022-12-18T07:54:44;29.50;;;14.30;;
70997;SDS011;58663;52.040;4.634;2022-12-18T07:57:10;30.95;;;14.90;;
70997;SDS011;58663;52.040;4.634;2022-12-18T07:59:36;38.55;;;15.43;;
70997;SDS011;58663;52.040;4.634;2022-12-18T08:02:01;32.20;;;14.18;;
70997;SDS011;58663;52.040;4.634;2022-12-18T08:04:27;31.27;;;14.27;;
70997;SDS011;58663;52.040;4.634;2022-12-18T08:06:52;34.60;;;16.30;;
70997;SDS011;58663;52.040;4.634;2022-12-18T08:09:18;31.30;;;14.40;;
70997;SDS011;58663;52.040;4.634;2022-12-18T08:11:43;39.38;;;16.17;;
70997;SDS011;58663;52.040;4.634;2022-12-18T08:14:09;41.65;;;17.08;;
70997;SDS011;58663;52.040;4.634;2022-12-18T08:16:35;34.55;;;16.77;;
70997;SDS011;58663;52.040;4.634;2022-12-18T08:19:00;36.30;;;15.85;;
70997;SDS011;58663;52.040;4.634;2022-12-18T08:21:27;37.10;;;17.17;;
70997;SDS011;58663;52.040;4.634;2022-12-18T08:23:54;40.15;;;16.85;;
70997;SDS011;58663;52.040;4.634;2022-12-18T08:26:21;31.27;;;16.85;;
70997;SDS011;58663;52.040;4.634;2022-12-18T08:28:47;34.78;;;16.70;;
70997;SDS011;58663;52.040;4.634;2022-12-18T08:31:13;32.22;;;16.85;;
70997;SDS011;58663;52.040;4.634;2022-12-18T08:33:39;33.72;;;15.27;;
70997;SDS011;58663;52.040;4.634;2022-12-18T08:36:06;31.95;;;15.77;;
70997;SDS011;58663;52.040;4.634;2022-12-18T08:38:32;33.22;;;15.63;;
70997;SDS011;58663;52.040;4.634;2022-12-18T08:41:05;33.47;;;15.63;;
70997;SDS011;58663;52.040;4.634;2022-12-18T08:43:32;26.90;;;14.73;;
70997;SDS011;58663;52.040;4.634;2022-12-18T08:46:17;31.15;;;15.23;;
70997;SDS011;58663;52.040;4.634;2022-12-18T08:48:43;34.38;;;15.52;;
70997;SDS011;58663;52.040;4.634;2022-12-18T08:51:09;30.05;;;15.77;;
70997;SDS011;58663;52.040;4.634;2022-12-18T08:53:37;34.60;;;14.57;;
70997;SDS011;58663;52.040;4.634;2022-12-18T08:56:03;31.95;;;15.50;;
70997;SDS011;58663;52.040;4.634;2022-12-18T08:58:29;31.00;;;15.20;;
70997;SDS011;58663;52.040;4.634;2022-12-18T09:00:59;27.90;;;15.00;;
70997;SDS011;58663;52.040;4.634;2022-12-18T09:03:28;35.10;;;17.00;;
70997;SDS011;58663;52.040;4.634;2022-12-18T09:05:53;33.70;;;16.38;;
70997;SDS011;58663;52.040;4.634;2022-12-18T09:08:18;32.95;;;15.23;;
70997;SDS011;58663;52.040;4.634;2022-12-18T09:10:45;38.17;;;16.42;;
70997;SDS011;58663;52.040;4.634;2022-12-18T09:13:11;30.58;;;14.38;;
70997;SDS011;58663;52.040;4.634;2022-12-18T09:15:53;40.20;;;17.58;;
70997;SDS011;58663;52.040;4.634;2022-12-18T09:18:19;31.92;;;17.63;;
70997;SDS011;58663;52.040;4.634;2022-12-18T09:20:46;31.23;;;16.50;;
70997;SDS011;58663;52.040;4.634;2022-12-18T09:23:12;38.75;;;16.42;;
70997;SDS011;58663;52.040;4.634;2022-12-18T09:25:37;30.15;;;14.60;;
70997;SDS011;58663;52.040;4.634;2022-12-18T09:28:04;33.05;;;15.95;;
70997;SDS011;58663;52.040;4.634;2022-12-18T09:30:32;33.03;;;15.35;;
70997;SDS011;58663;52.040;4.634;2022-12-18T09:32:59;37.10;;;16.25;;
70997;SDS011;58663;52.040;4.634;2022-12-18T09:35:25;35.00;;;15.75;;
70997;SDS011;58663;52.040;4.634;2022-12-18T09:37:50;34.13;;;16.30;;
70997;SDS011;58663;52.040;4.634;2022-12-18T09:40:16;34.78;;;16.08;;
70997;SDS011;58663;52.040;4.634;2022-12-18T09:42:45;33.45;;;16.05;;
70997;SDS011;58663;52.040;4.634;2022-12-18T09:45:16;33.08;;;15.90;;
70997;SDS011;58663;52.040;4.634;2022-12-18T09:47:42;25.63;;;14.80;;
70997;SDS011;58663;52.040;4.634;2022-12-18T09:50:28;31.88;;;16.52;;
70997;SDS011;58663;52.040;4.634;2022-12-18T09:53:09;34.60;;;16.60;;
70997;SDS011;58663;52.040;4.634;2022-12-18T09:55:41;35.90;;;15.95;;
70997;SDS011;58663;52.040;4.634;2022-12-18T10:00:44;33.25;;;17.45;;
70997;SDS011;58663;52.040;4.634;2022-12-18T10:03:11;33.38;;;15.15;;
70997;SDS011;58663;52.040;4.634;2022-12-18T10:08:40;28.13;;;14.93;;
70997;SDS011;58663;52.040;4.634;2022-12-18T10:11:20;32.58;;;14.70;;
70997;SDS011;58663;52.040;4.634;2022-12-18T10:16:17;37.67;;;17.08;;
70997;SDS011;58663;52.040;4.634;2022-12-18T10:21:19;27.73;;;12.27;;
70997;SDS011;58663;52.040;4.634;2022-12-18T10:26:52;28.15;;;13.73;;
70997;SDS011;58663;52.040;4.634;2022-12-18T10:29:18;25.95;;;13.68;;
70997;SDS011;58663;52.040;4.634;2022-12-18T10:31:44;32.38;;;15.57;;
70997;SDS011;58663;52.040;4.634;2022-12-18T10:34:10;29.23;;;14.55;;
70997;SDS011;58663;52.040;4.634;2022-12-18T10:36:36;27.20;;;14.40;;
70997;SDS011;58663;52.040;4.634;2022-12-18T10:39:22;24.98;;;13.30;;
70997;SDS011;58663;52.040;4.634;2022-12-18T10:41:48;31.13;;;15.15;;
70997;SDS011;58663;52.040;4.634;2022-12-18T10:44:19;34.75;;;16.58;;
70997;SDS011;58663;52.040;4.634;2022-12-18T10:46:46;26.85;;;14.13;;
70997;SDS011;58663;52.040;4.634;2022-12-18T10:49:23;25.67;;;14.90;;
70997;SDS011;58663;52.040;4.634;2022-12-18T10:51:51;32.58;;;15.60;;
70997;SDS011;58663;52.040;4.634;2022-12-18T10:54:30;33.38;;;15.13;;
70997;SDS011;58663;52.040;4.634;2022-12-18T10:57:13;29.13;;;14.30;;
70997;SDS011;58663;52.040;4.634;2022-12-18T10:59:55;28.83;;;14.32;;
70997;SDS011;58663;52.040;4.634;2022-12-18T11:04:51;35.42;;;16.90;;
70997;SDS011;58663;52.040;4.634;2022-12-18T11:07:17;36.58;;;17.48;;
70997;SDS011;58663;52.040;4.634;2022-12-18T11:09:42;31.60;;;15.65;;
70997;SDS011;58663;52.040;4.634;2022-12-18T11:12:15;29.45;;;15.55;;
70997;SDS011;58663;52.040;4.634;2022-12-18T11:14:49;28.75;;;13.73;;
70997;SDS011;58663;52.040;4.634;2022-12-18T11:19:58;30.38;;;14.10;;
70997;SDS011;58663;52.040;4.634;2022-12-18T11:22:26;35.05;;;15.70;;
70997;SDS011;58663;52.040;4.634;2022-12-18T11:24:57;29.92;;;14.15;;
70997;SDS011;58663;52.040;4.634;2022-12-18T11:27:26;31.23;;;15.40;;
70997;SDS011;58663;52.040;4.634;2022-12-18T11:30:06;38.15;;;16.08;;
70997;SDS011;58663;52.040;4.634;2022-12-18T11:32:39;29.88;;;15.23;;
70997;SDS011;58663;52.040;4.634;2022-12-18T11:35:11;26.63;;;14.30;;
70997;SDS011;58663;52.040;4.634;2022-12-18T11:37:47;34.05;;;16.23;;
70997;SDS011;58663;52.040;4.634;2022-12-18T11:40:17;32.30;;;16.08;;
70997;SDS011;58663;52.040;4.634;2022-12-18T11:42:54;26.77;;;14.77;;
70997;SDS011;58663;52.040;4.634;2022-12-18T11:45:28;30.35;;;15.18;;
70997;SDS011;58663;52.040;4.634;2022-12-18T11:47:57;27.90;;;14.95;;
70997;SDS011;58663;52.040;4.634;2022-12-18T11:50:31;34.78;;;14.55;;
70997;SDS011;58663;52.040;4.634;2022-12-18T11:53:09;37.20;;;14.93;;
70997;SDS011;58663;52.040;4.634;2022-12-18T11:55:41;29.50;;;14.23;;
70997;SDS011;58663;52.040;4.634;2022-12-18T12:06:13;26.27;;;14.40;;
70997;SDS011;58663;52.040;4.634;2022-12-18T12:11:59;31.65;;;14.75;;
70997;SDS011;58663;52.040;4.634;2022-12-18T12:14:08;27.42;;;13.35;;
70997;SDS011;58663;52.040;4.634;2022-12-18T12:19:36;30.58;;;13.95;;
70997;SDS011;58663;52.040;4.634;2022-12-18T12:30:26;30.10;;;14.77;;
70997;SDS011;58663;52.040;4.634;2022-12-18T12:33:05;28.50;;;15.48;;
70997;SDS011;58663;52.040;4.634;2022-12-18T12:35:43;31.17;;;13.50;;
70997;SDS011;58663;52.040;4.634;2022-12-18T12:40:39;29.08;;;14.88;;
70997;SDS011;58663;52.040;4.634;2022-12-18T12:43:27;35.58;;;14.85;;
70997;SDS011;58663;52.040;4.634;2022-12-18T12:54:00;30.60;;;13.80;;
70997;SDS011;58663;52.040;4.634;2022-12-18T12:56:37;26.15;;;13.00;;
70997;SDS011;58663;52.040;4.634;2022-12-18T12:59:18;28.10;;;13.55;;
70997;SDS011;58663;52.040;4.634;2022-12-18T13:07:18;28.45;;;12.50;;
70997;SDS011;58663;52.040;4.634;2022-12-18T13:20:50;24.48;;;12.57;;
70997;SDS011;58663;52.040;4.634;2022-12-18T13:30:59;25.63;;;14.35;;
70997;SDS011;58663;52.040;4.634;2022-12-18T13:44:33;30.17;;;14.73;;
70997;SDS011;58663;52.040;4.634;2022-12-18T13:47:05;25.85;;;13.05;;
70997;SDS011;58663;52.040;4.634;2022-12-18T13:49:56;31.85;;;14.02;;
70997;SDS011;58663;52.040;4.634;2022-12-18T13:52:22;28.75;;;13.18;;
70997;SDS011;58663;52.040;4.634;2022-12-18T13:54:59;26.23;;;13.05;;
70997;SDS011;58663;52.040;4.634;2022-12-18T13:57:29;25.90;;;13.93;;
70997;SDS011;58663;52.040;4.634;2022-12-18T13:59:56;30.80;;;14.75;;
70997;SDS011;58663;52.040;4.634;2022-12-18T14:02:24;40.20;;;15.00;;
70997;SDS011;58663;52.040;4.634;2022-12-18T14:04:50;27.48;;;14.07;;
70997;SDS011;58663;52.040;4.634;2022-12-18T14:07:17;38.20;;;15.30;;
70997;SDS011;58663;52.040;4.634;2022-12-18T14:09:48;26.85;;;13.82;;
70997;SDS011;58663;52.040;4.634;2022-12-18T14:12:21;34.85;;;15.32;;
70997;SDS011;58663;52.040;4.634;2022-12-18T14:15:25;29.52;;;14.13;;
70997;SDS011;58663;52.040;4.634;2022-12-18T14:17:57;34.13;;;14.93;;
70997;SDS011;58663;52.040;4.634;2022-12-18T14:20:24;30.77;;;14.07;;
70997;SDS011;58663;52.040;4.634;2022-12-18T14:22:51;29.73;;;14.20;;
70997;SDS011;58663;52.040;4.634;2022-12-18T14:25:24;30.52;;;14.40;;
70997;SDS011;58663;52.040;4.634;2022-12-18T14:35:27;26.83;;;14.40;;
70997;SDS011;58663;52.040;4.634;2022-12-18T14:37:53;25.25;;;13.77;;
70997;SDS011;58663;52.040;4.634;2022-12-18T14:40:18;31.23;;;14.20;;
70997;SDS011;58663;52.040;4.634;2022-12-18T14:42:44;26.33;;;13.82;;
70997;SDS011;58663;52.040;4.634;2022-12-18T14:50:36;33.42;;;14.00;;
70997;SDS011;58663;52.040;4.634;2022-12-18T14:53:01;23.98;;;12.85;;
70997;SDS011;58663;52.040;4.634;2022-12-18T14:55:27;27.40;;;13.98;;
70997;SDS011;58663;52.040;4.634;2022-12-18T14:57:53;30.52;;;14.38;;
70997;SDS011;58663;52.040;4.634;2022-12-18T15:00:21;27.63;;;15.30;;
70997;SDS011;58663;52.040;4.634;2022-12-18T15:02:55;30.90;;;14.93;;
70997;SDS011;58663;52.040;4.634;2022-12-18T15:05:30;29.42;;;14.88;;
70997;SDS011;58663;52.040;4.634;2022-12-18T15:07:57;25.25;;;13.57;;
70997;SDS011;58663;52.040;4.634;2022-12-18T15:10:30;27.38;;;13.82;;
70997;SDS011;58663;52.040;4.634;2022-12-18T15:18:03;35.08;;;15.07;;
70997;SDS011;58663;52.040;4.634;2022-12-18T15:20:32;30.08;;;14.25;;
70997;SDS011;58663;52.040;4.634;2022-12-18T15:22:58;33.63;;;14.40;;
70997;SDS011;58663;52.040;4.634;2022-12-18T15:25:36;28.00;;;14.48;;
70997;SDS011;58663;52.040;4.634;2022-12-18T15:28:03;26.40;;;13.48;;
70997;SDS011;58663;52.040;4.634;2022-12-18T15:30:29;33.22;;;15.23;;
70997;SDS011;58663;52.040;4.634;2022-12-18T15:35:47;31.95;;;15.35;;
70997;SDS011;58663;52.040;4.634;2022-12-18T15:38:21;31.15;;;13.85;;
70997;SDS011;58663;52.040;4.634;2022-12-18T15:40:46;30.83;;;13.95;;
70997;SDS011;58663;52.040;4.634;2022-12-18T15:43:12;28.92;;;14.00;;
70997;SDS011;58663;52.040;4.634;2022-12-18T15:45:56;34.03;;;14.43;;
70997;SDS011;58663;52.040;4.634;2022-12-18T15:48:22;26.40;;;14.38;;
70997;SDS011;58663;52.040;4.634;2022-12-18T15:50:48;28.23;;;13.60;;
70997;SDS011;58663;52.040;4.634;2022-12-18T15:53:15;33.08;;;14.60;;
70997;SDS011;58663;52.040;4.634;2022-12-18T15:55:41;26.73;;;14.30;;
70997;SDS011;58663;52.040;4.634;2022-12-18T15:58:25;27.60;;;14.05;;
70997;SDS011;58663;52.040;4.634;2022-12-18T16:00:50;27.90;;;13.65;;
70997;SDS011;58663;52.040;4.634;2022-12-18T16:03:15;31.45;;;14.50;;
70997;SDS011;58663;52.040;4.634;2022-12-18T16:05:41;29.00;;;13.95;;
70997;SDS011;58663;52.040;4.634;2022-12-18T16:08:06;28.80;;;14.25;;
70997;SDS011;58663;52.040;4.634;2022-12-18T16:10:32;31.17;;;13.82;;
70997;SDS011;58663;52.040;4.634;2022-12-18T16:12:57;34.00;;;15.27;;
70997;SDS011;58663;52.040;4.634;2022-12-18T16:15:22;30.77;;;14.70;;
70997;SDS011;58663;52.040;4.634;2022-12-18T16:17:48;34.35;;;14.57;;
70997;SDS011;58663;52.040;4.634;2022-12-18T16:20:14;34.35;;;15.30;;
70997;SDS011;58663;52.040;4.634;2022-12-18T16:22:41;31.98;;;14.27;;
70997;SDS011;58663;52.040;4.634;2022-12-18T16:25:17;25.83;;;13.10;;
70997;SDS011;58663;52.040;4.634;2022-12-18T16:27:47;26.25;;;14.50;;
70997;SDS011;58663;52.040;4.634;2022-12-18T16:30:17;31.40;;;14.68;;
70997;SDS011;58663;52.040;4.634;2022-12-18T16:32:47;33.90;;;14.48;;
70997;SDS011;58663;52.040;4.634;2022-12-18T16:35:13;28.48;;;13.45;;
70997;SDS011;58663;52.040;4.634;2022-12-18T16:37:40;27.80;;;14.48;;
70997;SDS011;58663;52.040;4.634;2022-12-18T16:40:06;30.65;;;14.43;;
70997;SDS011;58663;52.040;4.634;2022-12-18T16:42:35;39.38;;;15.88;;
70997;SDS011;58663;52.040;4.634;2022-12-18T16:45:01;31.08;;;14.23;;